Terminal Aerodrome Forecast
Issued by NWS

Home | Current Version | Previous Version | Text Only | Print | Product List | Glossary Off
Versions: 1 2 3 4 5 6 7 8 9 10 11 12 13 14 15 16 17 18

000
FTUS43 KMPX 192300
TAFRWF
TAF
KRWF 192339Z 2000/2024 36007KT P6SM FEW050
     FM200200 VRB03KT P6SM SCT250
     FM200700 12003KT 5SM BR SCT003
      TEMPO 2008/2012 2SM BR SCT002
     FM201400 14006KT P6SM SCT250
     FM201700 15010KT P6SM SCT050 BKN250=

USA.gov is the U.S. government's official web portal to all federal, state and local government web resources and services.